sensor_id;sensor_type;location;lat;lon;timestamp;pressure;altitude;pressure_sealevel;temperature;humidity
52249;BME280;38541;48.130;8.378;2023-04-20T00:02:13;92539.09;;;5.36;72.67
52249;BME280;38541;48.130;8.378;2023-04-20T00:04:42;92535.31;;;5.27;72.82
52249;BME280;38541;48.130;8.378;2023-04-20T00:07:09;92530.72;;;5.17;72.32
52249;BME280;38541;48.130;8.378;2023-04-20T00:09:36;92521.53;;;5.14;72.62
52249;BME280;38541;48.130;8.378;2023-04-20T00:12:02;92509.00;;;5.11;72.62
52249;BME280;38541;48.130;8.378;2023-04-20T00:14:29;92506.84;;;5.08;72.75
52249;BME280;38541;48.130;8.378;2023-04-20T00:16:56;92515.69;;;5.07;73.46
52249;BME280;38541;48.130;8.378;2023-04-20T00:19:22;92512.06;;;5.08;72.85
52249;BME280;38541;48.130;8.378;2023-04-20T00:21:49;92512.84;;;5.09;73.52
52249;BME280;38541;48.130;8.378;2023-04-20T00:24:15;92502.75;;;5.12;74.26
52249;BME280;38541;48.130;8.378;2023-04-20T00:26:42;92504.00;;;5.10;73.77
52249;BME280;38541;48.130;8.378;2023-04-20T00:29:08;92494.38;;;5.10;74.42
52249;BME280;38541;48.130;8.378;2023-04-20T00:31:35;92488.63;;;5.08;74.21
52249;BME280;38541;48.130;8.378;2023-04-20T00:34:02;92486.25;;;5.07;74.28
52249;BME280;38541;48.130;8.378;2023-04-20T00:36:28;92479.72;;;5.04;74.66
52249;BME280;38541;48.130;8.378;2023-04-20T00:38:57;92476.31;;;5.04;74.85
52249;BME280;38541;48.130;8.378;2023-04-20T00:41:27;92471.56;;;5.00;75.14
52249;BME280;38541;48.130;8.378;2023-04-20T00:43:53;92471.31;;;5.02;74.96
52249;BME280;38541;48.130;8.378;2023-04-20T00:46:20;92468.97;;;5.00;74.79
52249;BME280;38541;48.130;8.378;2023-04-20T00:48:49;92462.41;;;4.98;74.97
52249;BME280;38541;48.130;8.378;2023-04-20T00:51:17;92458.22;;;4.97;74.90
52249;BME280;38541;48.130;8.378;2023-04-20T00:53:44;92461.28;;;4.94;75.30
52249;BME280;38541;48.130;8.378;2023-04-20T00:56:14;92456.47;;;4.85;75.31
52249;BME280;38541;48.130;8.378;2023-04-20T00:58:42;92450.25;;;4.87;75.71
52249;BME280;38541;48.130;8.378;2023-04-20T01:01:09;92450.00;;;4.88;75.98
52249;BME280;38541;48.130;8.378;2023-04-20T01:03:38;92438.25;;;4.85;75.39
52249;BME280;38541;48.130;8.378;2023-04-20T01:06:05;92438.47;;;4.84;75.36
52249;BME280;38541;48.130;8.378;2023-04-20T01:08:32;92437.72;;;4.83;75.04
52249;BME280;38541;48.130;8.378;2023-04-20T01:11:02;92441.31;;;4.82;75.39
52249;BME280;38541;48.130;8.378;2023-04-20T01:13:28;92431.38;;;4.79;75.27
52249;BME280;38541;48.130;8.378;2023-04-20T01:15:58;92430.91;;;4.82;75.39
52249;BME280;38541;48.130;8.378;2023-04-20T01:18:25;92422.78;;;4.79;75.40
52249;BME280;38541;48.130;8.378;2023-04-20T01:20:52;92417.72;;;4.72;75.43
52249;BME280;38541;48.130;8.378;2023-04-20T01:23:19;92414.66;;;4.75;76.00
52249;BME280;38541;48.130;8.378;2023-04-20T01:25:45;92407.41;;;4.77;75.99
52249;BME280;38541;48.130;8.378;2023-04-20T01:28:13;92401.09;;;4.73;75.53
52249;BME280;38541;48.130;8.378;2023-04-20T01:30:40;92404.25;;;4.75;75.73
52249;BME280;38541;48.130;8.378;2023-04-20T01:33:07;92396.34;;;4.70;75.49
52249;BME280;38541;48.130;8.378;2023-04-20T01:35:33;92387.34;;;4.61;75.22
52249;BME280;38541;48.130;8.378;2023-04-20T01:38:00;92390.88;;;4.54;75.88
52249;BME280;38541;48.130;8.378;2023-04-20T01:40:27;92384.56;;;4.50;76.00
52249;BME280;38541;48.130;8.378;2023-04-20T01:42:53;92382.19;;;4.49;76.28
52249;BME280;38541;48.130;8.378;2023-04-20T01:45:21;92381.41;;;4.48;76.43
52249;BME280;38541;48.130;8.378;2023-04-20T01:47:47;92376.97;;;4.49;76.26
52249;BME280;38541;48.130;8.378;2023-04-20T01:50:14;92375.66;;;4.46;76.29
52249;BME280;38541;48.130;8.378;2023-04-20T01:52:40;92364.84;;;4.37;76.42
52249;BME280;38541;48.130;8.378;2023-04-20T01:55:08;92369.63;;;4.28;76.30
52249;BME280;38541;48.130;8.378;2023-04-20T01:57:36;92366.22;;;4.28;76.61
52249;BME280;38541;48.130;8.378;2023-04-20T02:00:03;92373.38;;;4.21;76.56
52249;BME280;38541;48.130;8.378;2023-04-20T02:02:39;92371.00;;;4.19;76.70
52249;BME280;38541;48.130;8.378;2023-04-20T02:05:06;92366.47;;;4.26;76.15
52249;BME280;38541;48.130;8.378;2023-04-20T02:07:33;92362.16;;;4.20;76.20
52249;BME280;38541;48.130;8.378;2023-04-20T02:09:59;92362.97;;;4.21;75.49
52249;BME280;38541;48.130;8.378;2023-04-20T02:12:26;92356.34;;;4.13;75.09
52249;BME280;38541;48.130;8.378;2023-04-20T02:14:52;92370.81;;;4.09;74.87
52249;BME280;38541;48.130;8.378;2023-04-20T02:17:20;92369.25;;;4.08;75.06
52249;BME280;38541;48.130;8.378;2023-04-20T02:19:46;92371.25;;;4.06;75.03
52249;BME280;38541;48.130;8.378;2023-04-20T02:22:13;92366.78;;;4.01;75.10
52249;BME280;38541;48.130;8.378;2023-04-20T02:24:39;92358.63;;;3.97;74.85
52249;BME280;38541;48.130;8.378;2023-04-20T02:27:06;92356.84;;;3.98;75.21
52249;BME280;38541;48.130;8.378;2023-04-20T02:29:34;92352.97;;;4.00;75.13
52249;BME280;38541;48.130;8.378;2023-04-20T02:32:00;92350.25;;;4.07;75.40
52249;BME280;38541;48.130;8.378;2023-04-20T02:34:27;92346.41;;;4.10;75.47
52249;BME280;38541;48.130;8.378;2023-04-20T02:36:55;92345.94;;;4.13;74.87
52249;BME280;38541;48.130;8.378;2023-04-20T02:39:21;92346.84;;;4.07;74.78
52249;BME280;38541;48.130;8.378;2023-04-20T02:41:49;92335.88;;;4.05;74.76
52249;BME280;38541;48.130;8.378;2023-04-20T02:44:15;92334.09;;;4.05;74.71
52249;BME280;38541;48.130;8.378;2023-04-20T02:46:42;92324.16;;;4.02;75.11
52249;BME280;38541;48.130;8.378;2023-04-20T02:49:09;92319.44;;;3.99;74.88
52249;BME280;38541;48.130;8.378;2023-04-20T02:51:40;92329.03;;;3.98;74.80
52249;BME280;38541;48.130;8.378;2023-04-20T02:54:07;92327.66;;;3.96;74.35
52249;BME280;38541;48.130;8.378;2023-04-20T02:56:34;92323.97;;;3.92;74.63
52249;BME280;38541;48.130;8.378;2023-04-20T02:59:04;92315.59;;;3.90;74.65
52249;BME280;38541;48.130;8.378;2023-04-20T03:01:41;92315.06;;;3.88;74.62
52249;BME280;38541;48.130;8.378;2023-04-20T03:04:17;92307.94;;;3.83;74.48
52249;BME280;38541;48.130;8.378;2023-04-20T03:06:52;92298.81;;;3.80;74.99
52249;BME280;38541;48.130;8.378;2023-04-20T03:09:24;92305.03;;;3.79;74.99
52249;BME280;38541;48.130;8.378;2023-04-20T03:12:16;92301.28;;;3.75;75.15
52249;BME280;38541;48.130;8.378;2023-04-20T03:15:10;92303.59;;;3.71;74.78
52249;BME280;38541;48.130;8.378;2023-04-20T03:17:56;92302.00;;;3.70;74.58
52249;BME280;38541;48.130;8.378;2023-04-20T03:20:23;92302.44;;;3.67;74.53
52249;BME280;38541;48.130;8.378;2023-04-20T03:22:50;92299.28;;;3.65;74.67
52249;BME280;38541;48.130;8.378;2023-04-20T03:25:19;92301.31;;;3.63;74.86
52249;BME280;38541;48.130;8.378;2023-04-20T03:27:56;92282.59;;;3.61;74.76
52249;BME280;38541;48.130;8.378;2023-04-20T03:30:23;92283.06;;;3.58;74.60
52249;BME280;38541;48.130;8.378;2023-04-20T03:32:56;92283.28;;;3.56;75.22
52249;BME280;38541;48.130;8.378;2023-04-20T03:35:23;92292.34;;;3.54;74.65
52249;BME280;38541;48.130;8.378;2023-04-20T03:37:50;92291.53;;;3.53;75.01
52249;BME280;38541;48.130;8.378;2023-04-20T03:40:16;92292.78;;;3.51;74.93
52249;BME280;38541;48.130;8.378;2023-04-20T03:42:42;92288.03;;;3.48;74.79
52249;BME280;38541;48.130;8.378;2023-04-20T03:45:09;92288.50;;;3.45;74.14
52249;BME280;38541;48.130;8.378;2023-04-20T03:47:36;92285.44;;;3.48;74.44
52249;BME280;38541;48.130;8.378;2023-04-20T03:50:04;92284.66;;;3.47;74.21
52249;BME280;38541;48.130;8.378;2023-04-20T03:52:30;92274.41;;;3.40;73.40
52249;BME280;38541;48.130;8.378;2023-04-20T03:55:01;92273.63;;;3.28;73.64
52249;BME280;38541;48.130;8.378;2023-04-20T03:57:27;92267.97;;;3.31;74.22
52249;BME280;38541;48.130;8.378;2023-04-20T03:59:54;92272.81;;;3.39;74.62
52249;BME280;38541;48.130;8.378;2023-04-20T04:02:23;92265.81;;;3.40;74.53
52249;BME280;38541;48.130;8.378;2023-04-20T04:04:51;92272.25;;;3.37;74.72
52249;BME280;38541;48.130;8.378;2023-04-20T04:07:20;92274.41;;;3.40;74.73
52249;BME280;38541;48.130;8.378;2023-04-20T04:09:47;92278.34;;;3.43;74.72
52249;BME280;38541;48.130;8.378;2023-04-20T04:12:14;92277.56;;;3.42;74.49
52249;BME280;38541;48.130;8.378;2023-04-20T04:14:41;92285.81;;;3.39;74.54
52249;BME280;38541;48.130;8.378;2023-04-20T04:17:12;92281.06;;;3.36;74.54
52249;BME280;38541;48.130;8.378;2023-04-20T04:19:40;92275.31;;;3.34;75.16
52249;BME280;38541;48.130;8.378;2023-04-20T04:22:08;92279.72;;;3.34;75.23
52249;BME280;38541;48.130;8.378;2023-04-20T04:24:42;92279.50;;;3.35;75.38
52249;BME280;38541;48.130;8.378;2023-04-20T04:27:09;92278.00;;;3.39;74.66
52249;BME280;38541;48.130;8.378;2023-04-20T04:29:49;92271.81;;;3.40;74.71
52249;BME280;38541;48.130;8.378;2023-04-20T04:32:18;92277.91;;;3.34;74.56
52249;BME280;38541;48.130;8.378;2023-04-20T04:34:44;92282.44;;;3.27;74.14
52249;BME280;38541;48.130;8.378;2023-04-20T04:37:11;92288.09;;;3.24;74.80
52249;BME280;38541;48.130;8.378;2023-04-20T04:39:43;92291.47;;;3.24;74.91
52249;BME280;38541;48.130;8.378;2023-04-20T04:42:17;92296.66;;;3.24;74.79
52249;BME280;38541;48.130;8.378;2023-04-20T04:44:44;92284.34;;;3.32;75.08
52249;BME280;38541;48.130;8.378;2023-04-20T04:47:16;92283.13;;;3.34;74.77
52249;BME280;38541;48.130;8.378;2023-04-20T04:49:43;92284.22;;;3.38;75.00
52249;BME280;38541;48.130;8.378;2023-04-20T04:52:10;92284.69;;;3.35;75.14
52249;BME280;38541;48.130;8.378;2023-04-20T04:54:37;92281.06;;;3.36;75.38
52249;BME280;38541;48.130;8.378;2023-04-20T04:57:03;92287.28;;;3.35;74.25
52249;BME280;38541;48.130;8.378;2023-04-20T04:59:30;92281.84;;;3.37;74.75
52249;BME280;38541;48.130;8.378;2023-04-20T05:01:56;92280.84;;;3.38;74.50
52249;BME280;38541;48.130;8.378;2023-04-20T05:04:23;92290.09;;;3.34;74.25
52249;BME280;38541;48.130;8.378;2023-04-20T05:06:49;92284.91;;;3.34;74.39
52249;BME280;38541;48.130;8.378;2023-04-20T05:09:16;92279.97;;;3.32;74.55
52249;BME280;38541;48.130;8.378;2023-04-20T05:11:43;92277.91;;;3.34;74.39
52249;BME280;38541;48.130;8.378;2023-04-20T05:14:09;92281.06;;;3.36;73.45
52249;BME280;38541;48.130;8.378;2023-04-20T05:16:36;92274.06;;;3.37;74.32
52249;BME280;38541;48.130;8.378;2023-04-20T05:19:03;92275.41;;;3.39;74.11
52249;BME280;38541;48.130;8.378;2023-04-20T05:21:30;92275.75;;;3.43;74.26
52249;BME280;38541;48.130;8.378;2023-04-20T05:23:57;92277.34;;;3.44;74.12
52249;BME280;38541;48.130;8.378;2023-04-20T05:26:24;92283.75;;;3.41;74.66
52249;BME280;38541;48.130;8.378;2023-04-20T05:28:51;92278.00;;;3.39;74.55
52249;BME280;38541;48.130;8.378;2023-04-20T05:31:17;92279.38;;;3.42;74.86
52249;BME280;38541;48.130;8.378;2023-04-20T05:33:44;92278.09;;;3.45;73.67
52249;BME280;38541;48.130;8.378;2023-04-20T05:36:10;92281.25;;;3.47;73.51
52249;BME280;38541;48.130;8.378;2023-04-20T05:38:37;92282.19;;;3.40;74.18
52249;BME280;38541;48.130;8.378;2023-04-20T05:41:03;92280.97;;;3.43;74.34
52249;BME280;38541;48.130;8.378;2023-04-20T05:43:30;92278.56;;;3.41;74.04
52249;BME280;38541;48.130;8.378;2023-04-20T05:45:59;92276.06;;;3.47;74.26
52249;BME280;38541;48.130;8.378;2023-04-20T05:48:26;92266.03;;;3.50;74.25
52249;BME280;38541;48.130;8.378;2023-04-20T05:50:55;92274.72;;;3.56;74.05
52249;BME280;38541;48.130;8.378;2023-04-20T05:53:21;92272.72;;;3.34;73.82
52249;BME280;38541;48.130;8.378;2023-04-20T05:55:48;92266.16;;;3.43;74.18
52249;BME280;38541;48.130;8.378;2023-04-20T05:58:15;92265.00;;;3.51;74.25
52249;BME280;38541;48.130;8.378;2023-04-20T06:00:42;92254.84;;;3.50;73.50
52249;BME280;38541;48.130;8.378;2023-04-20T06:03:08;92251.56;;;3.54;74.79
52249;BME280;38541;48.130;8.378;2023-04-20T06:05:35;92257.09;;;3.58;74.29
52249;BME280;38541;48.130;8.378;2023-04-20T06:08:02;92252.53;;;3.65;74.29
52249;BME280;38541;48.130;8.378;2023-04-20T06:10:29;92253.63;;;3.69;74.08
52249;BME280;38541;48.130;8.378;2023-04-20T06:12:57;92252.72;;;3.76;73.56
52249;BME280;38541;48.130;8.378;2023-04-20T06:15:24;92255.97;;;3.83;74.17
52249;BME280;38541;48.130;8.378;2023-04-20T06:17:50;92263.78;;;3.83;73.86
52249;BME280;38541;48.130;8.378;2023-04-20T06:20:18;92261.25;;;3.88;73.82
52249;BME280;38541;48.130;8.378;2023-04-20T06:22:46;92265.91;;;3.86;73.31
52249;BME280;38541;48.130;8.378;2023-04-20T06:25:13;92266.84;;;3.80;73.43
52249;BME280;38541;48.130;8.378;2023-04-20T06:27:43;92270.75;;;3.53;73.52
52249;BME280;38541;48.130;8.378;2023-04-20T06:30:10;92262.03;;;3.60;74.45
52249;BME280;38541;48.130;8.378;2023-04-20T06:32:37;92266.97;;;3.73;74.60
52249;BME280;38541;48.130;8.378;2023-04-20T06:35:05;92260.69;;;3.86;73.97
52249;BME280;38541;48.130;8.378;2023-04-20T06:37:31;92257.00;;;3.82;73.49
52249;BME280;38541;48.130;8.378;2023-04-20T06:39:58;92267.72;;;3.85;74.38
52249;BME280;38541;48.130;8.378;2023-04-20T06:42:25;92258.44;;;3.90;74.36
52249;BME280;38541;48.130;8.378;2023-04-20T06:44:55;92264.75;;;3.94;73.77
52249;BME280;38541;48.130;8.378;2023-04-20T06:47:22;92257.94;;;3.76;72.86
52249;BME280;38541;48.130;8.378;2023-04-20T06:49:49;92259.03;;;3.80;73.27
52249;BME280;38541;48.130;8.378;2023-04-20T06:52:15;92261.09;;;3.78;73.26
52249;BME280;38541;48.130;8.378;2023-04-20T06:54:42;92254.19;;;3.83;73.16
52249;BME280;38541;48.130;8.378;2023-04-20T06:57:09;92256.22;;;3.81;72.64
52249;BME280;38541;48.130;8.378;2023-04-20T06:59:35;92258.19;;;3.62;71.47
52249;BME280;38541;48.130;8.378;2023-04-20T07:02:02;92258.25;;;3.79;73.02
52249;BME280;38541;48.130;8.378;2023-04-20T07:04:29;92255.25;;;3.70;72.75
52249;BME280;38541;48.130;8.378;2023-04-20T07:06:56;92258.56;;;3.83;73.77
52249;BME280;38541;48.130;8.378;2023-04-20T07:09:23;92261.84;;;3.90;72.68
52249;BME280;38541;48.130;8.378;2023-04-20T07:11:50;92252.88;;;3.98;73.77
52249;BME280;38541;48.130;8.378;2023-04-20T07:14:16;92254.06;;;4.07;72.76
52249;BME280;38541;48.130;8.378;2023-04-20T07:16:43;92252.25;;;4.08;72.51
52249;BME280;38541;48.130;8.378;2023-04-20T07:19:10;92252.00;;;4.09;72.94
52249;BME280;38541;48.130;8.378;2023-04-20T07:21:36;92246.19;;;4.19;72.55
52249;BME280;38541;48.130;8.378;2023-04-20T07:24:03;92251.38;;;4.02;72.12
52249;BME280;38541;48.130;8.378;2023-04-20T07:26:30;92252.75;;;3.93;72.49
52249;BME280;38541;48.130;8.378;2023-04-20T07:28:57;92254.88;;;4.08;72.35
52249;BME280;38541;48.130;8.378;2023-04-20T07:31:23;92251.41;;;4.19;71.13
52249;BME280;38541;48.130;8.378;2023-04-20T07:33:50;92255.69;;;4.42;71.92
52249;BME280;38541;48.130;8.378;2023-04-20T07:36:17;92256.00;;;4.46;70.30
52249;BME280;38541;48.130;8.378;2023-04-20T07:38:45;92247.72;;;4.66;71.00
52249;BME280;38541;48.130;8.378;2023-04-20T07:41:12;92252.13;;;4.83;70.08
52249;BME280;38541;48.130;8.378;2023-04-20T07:43:38;92248.09;;;4.75;70.90
52249;BME280;38541;48.130;8.378;2023-04-20T07:46:06;92248.09;;;4.75;69.99
52249;BME280;38541;48.130;8.378;2023-04-20T07:48:33;92248.09;;;4.75;70.90
52249;BME280;38541;48.130;8.378;2023-04-20T07:51:00;92252.34;;;4.81;70.27
52249;BME280;38541;48.130;8.378;2023-04-20T07:53:30;92248.66;;;4.60;70.36
52249;BME280;38541;48.130;8.378;2023-04-20T07:55:56;92260.41;;;4.63;72.08
52249;BME280;38541;48.130;8.378;2023-04-20T07:58:23;92247.94;;;4.82;71.19
52249;BME280;38541;48.130;8.378;2023-04-20T08:00:50;92250.16;;;4.73;70.15
52249;BME280;38541;48.130;8.378;2023-04-20T08:03:16;92243.59;;;4.70;70.40
52249;BME280;38541;48.130;8.378;2023-04-20T08:05:44;92240.22;;;4.70;70.53
52249;BME280;38541;48.130;8.378;2023-04-20T08:08:11;92234.06;;;4.76;71.07
52249;BME280;38541;48.130;8.378;2023-04-20T08:10:38;92241.28;;;4.91;69.91
52249;BME280;38541;48.130;8.378;2023-04-20T08:13:04;92235.38;;;4.96;69.87
52249;BME280;38541;48.130;8.378;2023-04-20T08:15:31;92238.41;;;4.88;69.85
52249;BME280;38541;48.130;8.378;2023-04-20T08:17:57;92237.41;;;4.54;70.17
52249;BME280;38541;48.130;8.378;2023-04-20T08:20:24;92236.59;;;4.54;70.53
52249;BME280;38541;48.130;8.378;2023-04-20T08:22:51;92241.56;;;4.55;71.40
52249;BME280;38541;48.130;8.378;2023-04-20T08:25:18;92245.91;;;4.50;70.70
52249;BME280;38541;48.130;8.378;2023-04-20T08:27:45;92242.59;;;4.54;71.04
52249;BME280;38541;48.130;8.378;2023-04-20T08:30:12;92241.63;;;4.61;70.52
52249;BME280;38541;48.130;8.378;2023-04-20T08:32:38;92244.16;;;4.55;70.65
52249;BME280;38541;48.130;8.378;2023-04-20T08:35:06;92239.44;;;4.52;70.21
52249;BME280;38541;48.130;8.378;2023-04-20T08:37:33;92235.34;;;4.56;71.36
52249;BME280;38541;48.130;8.378;2023-04-20T08:40:00;92230.44;;;4.43;70.54
52249;BME280;38541;48.130;8.378;2023-04-20T08:42:27;92233.31;;;4.41;71.64
52249;BME280;38541;48.130;8.378;2023-04-20T08:44:53;92238.44;;;4.36;71.84
52249;BME280;38541;48.130;8.378;2023-04-20T08:47:19;92238.09;;;4.33;72.23
52249;BME280;38541;48.130;8.378;2023-04-20T08:49:48;92238.66;;;4.35;71.97
52249;BME280;38541;48.130;8.378;2023-04-20T08:52:18;92229.03;;;4.35;72.71
52249;BME280;38541;48.130;8.378;2023-04-20T08:54:44;92237.09;;;4.34;72.92
52249;BME280;38541;48.130;8.378;2023-04-20T08:57:22;92238.81;;;4.45;72.46
52249;BME280;38541;48.130;8.378;2023-04-20T08:59:49;92239.97;;;4.20;71.41
52249;BME280;38541;48.130;8.378;2023-04-20T09:02:15;92237.84;;;4.17;72.58
52249;BME280;38541;48.130;8.378;2023-04-20T09:04:42;92235.81;;;4.19;72.36
52249;BME280;38541;48.130;8.378;2023-04-20T09:07:19;92231.16;;;4.21;72.37
52249;BME280;38541;48.130;8.378;2023-04-20T09:09:59;92236.75;;;4.13;71.78
52249;BME280;38541;48.130;8.378;2023-04-20T09:12:27;92239.09;;;4.14;72.93
52249;BME280;38541;48.130;8.378;2023-04-20T09:14:53;92232.09;;;4.15;73.20
52249;BME280;38541;48.130;8.378;2023-04-20T09:17:34;92231.69;;;4.23;73.39
52249;BME280;38541;48.130;8.378;2023-04-20T09:20:02;92223.38;;;4.38;73.99
52249;BME280;38541;48.130;8.378;2023-04-20T09:22:35;92218.31;;;4.32;72.62
52249;BME280;38541;48.130;8.378;2023-04-20T09:25:12;92219.97;;;4.38;72.81
52249;BME280;38541;48.130;8.378;2023-04-20T09:27:39;92212.34;;;4.48;72.79
52249;BME280;38541;48.130;8.378;2023-04-20T09:30:06;92217.13;;;4.56;72.28
52249;BME280;38541;48.130;8.378;2023-04-20T09:32:33;92213.66;;;4.68;72.67
52249;BME280;38541;48.130;8.378;2023-04-20T09:35:00;92213.88;;;4.66;72.06
52249;BME280;38541;48.130;8.378;2023-04-20T09:37:27;92213.31;;;4.81;72.01
52249;BME280;38541;48.130;8.378;2023-04-20T09:39:58;92210.47;;;4.83;70.66
52249;BME280;38541;48.130;8.378;2023-04-20T09:42:27;92216.41;;;4.78;72.67
52249;BME280;38541;48.130;8.378;2023-04-20T09:44:54;92207.16;;;4.88;72.83
52249;BME280;38541;48.130;8.378;2023-04-20T09:47:21;92206.56;;;5.03;72.24
52249;BME280;38541;48.130;8.378;2023-04-20T09:49:48;92204.69;;;4.98;70.82
52249;BME280;38541;48.130;8.378;2023-04-20T09:52:16;92205.44;;;4.93;71.58
52249;BME280;38541;48.130;8.378;2023-04-20T09:54:44;92198.53;;;5.04;70.55
52249;BME280;38541;48.130;8.378;2023-04-20T09:57:12;92204.88;;;5.13;71.37
52249;BME280;38541;48.130;8.378;2023-04-20T09:59:44;92200.84;;;5.23;71.52
52249;BME280;38541;48.130;8.378;2023-04-20T10:02:12;92198.03;;;5.29;72.12
52249;BME280;38541;48.130;8.378;2023-04-20T10:04:54;92197.44;;;5.45;70.64
52249;BME280;38541;48.130;8.378;2023-04-20T10:07:25;92192.91;;;5.35;71.39
52249;BME280;38541;48.130;8.378;2023-04-20T10:10:09;92187.06;;;5.50;71.84
52249;BME280;38541;48.130;8.378;2023-04-20T10:12:48;92178.75;;;5.53;71.19
52249;BME280;38541;48.130;8.378;2023-04-20T10:15:16;92178.75;;;5.53;71.39
52249;BME280;38541;48.130;8.378;2023-04-20T10:17:43;92183.03;;;5.59;70.89
52249;BME280;38541;48.130;8.378;2023-04-20T10:22:46;92179.97;;;5.67;70.27
52249;BME280;38541;48.130;8.378;2023-04-20T10:25:17;92176.63;;;5.72;70.32
52249;BME280;38541;48.130;8.378;2023-04-20T10:27:53;92179.09;;;5.84;70.76
52249;BME280;38541;48.130;8.378;2023-04-20T10:30:20;92182.72;;;5.83;71.10
52249;BME280;38541;48.130;8.378;2023-04-20T10:32:46;92182.81;;;5.93;70.74
52249;BME280;38541;48.130;8.378;2023-04-20T10:35:13;92177.41;;;5.72;70.10
52249;BME280;38541;48.130;8.378;2023-04-20T10:37:49;92189.81;;;5.60;71.42
52249;BME280;38541;48.130;8.378;2023-04-20T10:40:23;92192.78;;;5.47;70.99
52249;BME280;38541;48.130;8.378;2023-04-20T10:42:50;92187.06;;;5.50;72.21
52249;BME280;38541;48.130;8.378;2023-04-20T10:45:17;92195.97;;;5.54;71.38
52249;BME280;38541;48.130;8.378;2023-04-20T10:47:43;92193.44;;;5.59;71.86
52249;BME280;38541;48.130;8.378;2023-04-20T10:50:13;92201.81;;;5.61;70.96
52249;BME280;38541;48.130;8.378;2023-04-20T10:52:41;92196.88;;;5.65;70.98
52249;BME280;38541;48.130;8.378;2023-04-20T10:55:23;92200.63;;;5.52;71.36
52249;BME280;38541;48.130;8.378;2023-04-20T10:57:50;92198.22;;;5.45;72.23
52249;BME280;38541;48.130;8.378;2023-04-20T11:02:52;92193.13;;;5.55;72.33
52249;BME280;38541;48.130;8.378;2023-04-20T11:05:20;92183.78;;;5.60;71.88
52249;BME280;38541;48.130;8.378;2023-04-20T11:07:50;92170.53;;;5.61;72.14
52249;BME280;38541;48.130;8.378;2023-04-20T11:10:18;92171.00;;;5.58;71.36
52249;BME280;38541;48.130;8.378;2023-04-20T11:12:45;92170.53;;;5.61;71.53
52249;BME280;38541;48.130;8.378;2023-04-20T11:15:12;92166.69;;;5.69;71.23
52249;BME280;38541;48.130;8.378;2023-04-20T11:17:39;92172.78;;;5.80;72.24
52249;BME280;38541;48.130;8.378;2023-04-20T11:20:10;92166.06;;;5.84;71.59
52249;BME280;38541;48.130;8.378;2023-04-20T11:22:38;92171.81;;;5.86;71.48
52249;BME280;38541;48.130;8.378;2023-04-20T11:25:07;92165.88;;;5.96;72.14
52249;BME280;38541;48.130;8.378;2023-04-20T11:27:35;92161.34;;;6.08;72.43
52249;BME280;38541;48.130;8.378;2023-04-20T11:30:03;92160.09;;;6.16;71.70
52249;BME280;38541;48.130;8.378;2023-04-20T11:32:31;92148.56;;;6.12;70.54
52249;BME280;38541;48.130;8.378;2023-04-20T11:35:07;92148.53;;;6.07;71.03
52249;BME280;38541;48.130;8.378;2023-04-20T11:37:48;92155.16;;;6.20;70.99
52249;BME280;38541;48.130;8.378;2023-04-20T11:40:16;92152.81;;;6.18;70.20
52249;BME280;38541;48.130;8.378;2023-04-20T11:42:43;92161.09;;;6.15;69.89
52249;BME280;38541;48.130;8.378;2023-04-20T11:45:09;92159.97;;;6.33;71.24
52249;BME280;38541;48.130;8.378;2023-04-20T11:47:38;92168.00;;;6.26;70.65
52249;BME280;38541;48.130;8.378;2023-04-20T11:50:07;92158.81;;;6.19;70.34
52249;BME280;38541;48.130;8.378;2023-04-20T11:52:34;92160.91;;;6.22;70.95
52249;BME280;38541;48.130;8.378;2023-04-20T11:55:01;92174.00;;;6.27;70.59
52249;BME280;38541;48.130;8.378;2023-04-20T11:57:27;92166.19;;;5.99;70.31
52249;BME280;38541;48.130;8.378;2023-04-20T11:59:54;92164.72;;;6.09;71.33
52249;BME280;38541;48.130;8.378;2023-04-20T12:02:20;92165.09;;;5.95;70.00
52249;BME280;38541;48.130;8.378;2023-04-20T12:04:48;92159.84;;;5.90;70.90
52249;BME280;38541;48.130;8.378;2023-04-20T12:07:14;92164.63;;;5.98;72.04
52249;BME280;38541;48.130;8.378;2023-04-20T12:09:41;92164.16;;;6.02;71.80
52249;BME280;38541;48.130;8.378;2023-04-20T12:12:07;92159.53;;;6.14;72.05
52249;BME280;38541;48.130;8.378;2023-04-20T12:14:35;92157.56;;;6.26;70.28
52249;BME280;38541;48.130;8.378;2023-04-20T12:17:03;92161.38;;;6.13;71.37
52249;BME280;38541;48.130;8.378;2023-04-20T12:19:30;92153.69;;;6.34;70.90
52249;BME280;38541;48.130;8.378;2023-04-20T12:21:57;92150.47;;;6.54;71.43
52249;BME280;38541;48.130;8.378;2023-04-20T12:24:23;92148.38;;;6.56;71.34
52249;BME280;38541;48.130;8.378;2023-04-20T12:26:49;92153.22;;;6.42;69.75
52249;BME280;38541;48.130;8.378;2023-04-20T12:29:16;92158.72;;;6.08;71.55
52249;BME280;38541;48.130;8.378;2023-04-20T12:31:43;92157.41;;;6.06;71.42
52249;BME280;38541;48.130;8.378;2023-04-20T12:34:09;92168.88;;;6.05;71.97
52249;BME280;38541;48.130;8.378;2023-04-20T12:36:36;92166.88;;;6.17;71.22
52249;BME280;38541;48.130;8.378;2023-04-20T12:39:03;92162.44;;;5.90;70.65
52249;BME280;38541;48.130;8.378;2023-04-20T12:41:29;92165.09;;;5.95;72.60
52249;BME280;38541;48.130;8.378;2023-04-20T12:43:55;92174.03;;;6.32;71.52
52249;BME280;38541;48.130;8.378;2023-04-20T12:46:22;92165.22;;;6.43;70.54
52249;BME280;38541;48.130;8.378;2023-04-20T12:48:48;92155.94;;;6.58;70.07
52249;BME280;38541;48.130;8.378;2023-04-20T12:51:15;92157.91;;;6.83;70.78
52249;BME280;38541;48.130;8.378;2023-04-20T12:53:42;92155.91;;;6.96;70.04
52249;BME280;38541;48.130;8.378;2023-04-20T12:56:08;92156.03;;;6.68;69.65
52249;BME280;38541;48.130;8.378;2023-04-20T12:58:35;92150.03;;;6.30;72.47
52249;BME280;38541;48.130;8.378;2023-04-20T13:01:02;92147.22;;;6.37;71.52
52249;BME280;38541;48.130;8.378;2023-04-20T13:03:28;92149.81;;;6.37;71.62
52249;BME280;38541;48.130;8.378;2023-04-20T13:05:55;92141.03;;;6.16;69.65
52249;BME280;38541;48.130;8.378;2023-04-20T13:08:22;92158.72;;;6.08;71.42
52249;BME280;38541;48.130;8.378;2023-04-20T13:10:48;92161.06;;;6.10;72.18
52249;BME280;38541;48.130;8.378;2023-04-20T13:13:15;92162.16;;;6.14;71.49
52249;BME280;38541;48.130;8.378;2023-04-20T13:15:41;92167.28;;;6.04;71.64
52249;BME280;38541;48.130;8.378;2023-04-20T13:18:07;92168.69;;;5.89;71.91
52249;BME280;38541;48.130;8.378;2023-04-20T13:20:35;92169.69;;;5.83;71.87